Platzwetter Flugplatz Wels

Flugwetter Linz LOWL

[Quelle: ADDS]
METAR
LOWL 210750Z 12003KT 010V170 3000 BR BKN002 10/10 Q1018 BECMG 5000 BKN005 =
AMD LOWL 210746Z 2107/2206 VRB02KT 2000 BCFG OVC002 TX15/2114Z TN10/2205Z BECMG 2108/2110 5000 BR SCT003 BKN005 TEMPO 2112/2117 9000 NSW FEW010 BKN200 BECMG 2121/2123 0800 BCFG OVC002 TEMPO 2202/2206 0500 FG VV002
TAF
AMD LOWL 210746Z 2107/2206 VRB02KT 2000 BCFG OVC002 TX15/2114Z TN10/2205Z BECMG 2108/2110 5000 BR SCT003 BKN005 TEMPO 2112/2117 9000 NSW FEW010 BKN200 BECMG 2121/2123 0800 BCFG OVC002 TEMPO 2202/2206 0500 FG VV002 =

Flugwetter Salzburg LOWS

[Quelle: ADDS]
METAR
LOWS 210750Z 33007KT 9999 FEW080 SCT120 BKN150 15/10 Q1018 NOSIG =
AMD LOWS 210726Z 2107/2206 15008KT CAVOK TX23/2113Z TN11/2205Z TEMPO 2107/2116 33008KT 9999 FEW080 SCT120 BKN250 BECMG 2116/2118 15005KT TEMPO 2200/2206 VRB01KT 1200 BCFG NSC
TAF
AMD LOWS 210726Z 2107/2206 15008KT CAVOK TX23/2113Z TN11/2205Z TEMPO 2107/2116 33008KT 9999 FEW080 SCT120 BKN250 BECMG 2116/2118 15005KT TEMPO 2200/2206 VRB01KT 1200 BCFG NSC =

Wind - Verlauf

Windrichtung - Verlauf

Temperatur - Verlauf

Relative Luftfeuchtigkeit - Verlauf

Luftdruck - Verlauf

Cookies erleichtern die Bereitstellung unserer Dienste. Mit der Nutzung unserer Dienste erklären Sie sich damit einverstanden, dass wir Cookies verwenden.
Weitere Informationen Ok